Time;durP1;ratioP1;P1;durP2;ratioP2;P2;SDS_P1;SDS_P2;PMS_P1;PMS_P2;Temp;Humidity;BMP_temperature;BMP_pressure;BME280_temperature;BME280_humidity;BME280_pressure;Samples;Min_cycle;Max_cycle;Signal;HPM_P1;HPM_P2
2021/12/05 00:20:09;;;;;;;1.27;0.97;;;9.00;45.20;;;;;;10194864;28;20236;-69
2021/12/05 00:25:19;;;;;;;1.23;1.00;;;8.90;45.00;;;;;;10245964;28;20243;-70
2021/12/05 00:30:49;;;;;;;0.97;0.87;;;8.90;44.80;;;;;;10238447;28;20614;-70
2021/12/05 00:41:53;;;;;;;1.37;1.20;;;8.80;45.00;;;;;;10255428;28;20227;-71
2021/12/05 00:47:17;;;;;;;1.23;1.13;;;8.70;44.90;;;;;;10238571;28;20634;-70
2021/12/05 00:52:45;;;;;;;2.13;1.23;;;8.70;45.10;;;;;;10239911;28;20232;-71
2021/12/05 00:58:36;;;;;;;1.37;1.00;;;8.70;45.00;;;;;;10227718;28;20236;-70
2021/12/05 01:03:54;;;;;;;1.20;1.10;;;8.70;45.10;;;;;;10239186;28;20223;-70
2021/12/05 01:14:49;;;;;;;1.70;1.10;;;8.70;45.30;;;;;;10092651;29;20241;-70
2021/12/05 01:19:52;;;;;;;2.00;1.30;;;8.70;45.10;;;;;;10217781;28;20232;-70
2021/12/05 01:25:03;;;;;;;1.80;1.70;;;8.60;44.90;;;;;;10241684;28;20251;-70
2021/12/05 01:30:15;;;;;;;1.97;1.40;;;8.60;44.90;;;;;;10245821;28;20223;-71
2021/12/05 01:35:29;;;;;;;3.10;1.40;;;8.60;44.70;;;;;;10233249;28;20240;-70
2021/12/05 01:40:49;;;;;;;2.87;1.50;;;8.50;44.60;;;;;;10240828;28;20240;-70
2021/12/05 01:51:50;;;;;;;2.10;1.97;;;8.40;44.90;;;;;;10210721;28;20231;-70
2021/12/05 02:02:52;;;;;;;2.27;1.43;;;8.30;44.90;;;;;;10249769;28;20232;-70
2021/12/05 02:29:40;;;;;;;2.50;1.17;;;8.00;44.10;;;;;;10241157;28;20236;-71
2021/12/05 02:34:52;;;;;;;2.17;1.10;;;8.00;43.70;;;;;;10249392;28;20262;-70
2021/12/05 02:40:20;;;;;;;3.73;1.20;;;8.00;43.40;;;;;;10264898;28;20606;-71
2021/12/05 02:45:24;;;;;;;4.40;1.40;;;8.00;43.10;;;;;;10241541;28;20243;-74
2021/12/05 02:50:32;;;;;;;2.23;1.27;;;7.90;43.30;;;;;;10243083;28;20654;-74
2021/12/05 02:55:37;;;;;;;3.13;1.10;;;7.90;43.10;;;;;;10243387;28;20240;-74
2021/12/05 03:00:44;;;;;;;1.83;1.10;;;7.90;43.40;;;;;;10240431;28;20243;-74
2021/12/05 03:05:53;;;;;;;2.93;1.17;;;7.80;43.40;;;;;;10238810;28;20731;-74
2021/12/05 03:10:59;;;;;;;3.97;1.40;;;7.80;43.40;;;;;;10236737;28;20234;-74
2021/12/05 03:16:02;;;;;;;2.90;1.13;;;7.90;43.30;;;;;;10232549;28;20247;-74
2021/12/05 03:21:07;;;;;;;4.53;1.20;;;7.90;43.40;;;;;;10239047;28;20660;-73
2021/12/05 03:26:17;;;;;;;3.13;1.00;;;7.90;43.30;;;;;;10242076;28;20242;-74
2021/12/05 03:31:21;;;;;;;1.73;0.90;;;7.80;43.20;;;;;;10238198;28;20240;-74
2021/12/05 03:36:26;;;;;;;3.13;1.10;;;7.80;43.40;;;;;;10239188;28;20248;-74
2021/12/05 03:41:31;;;;;;;2.27;1.00;;;7.80;43.30;;;;;;10237278;28;20610;-74
2021/12/05 03:46:35;;;;;;;4.03;1.30;;;7.80;43.30;;;;;;10234072;28;20726;-74
2021/12/05 03:51:41;;;;;;;1.07;0.90;;;7.70;43.20;;;;;;10237225;28;20228;-74
2021/12/05 03:56:47;;;;;;;2.63;1.13;;;7.70;43.30;;;;;;10238526;28;20248;-74
2021/12/05 04:01:50;;;;;;;3.00;1.10;;;7.60;43.30;;;;;;10236983;28;20236;-74
2021/12/05 04:06:54;;;;;;;2.90;1.00;;;7.60;43.60;;;;;;10236280;28;20300;-74
2021/12/05 04:12:02;;;;;;;2.20;1.10;;;7.60;43.60;;;;;;10235700;28;20243;-74
2021/12/05 04:17:08;;;;;;;3.13;1.20;;;7.60;43.40;;;;;;10238495;28;20243;-74
2021/12/05 04:22:12;;;;;;;2.03;1.23;;;7.60;43.30;;;;;;10237427;28;20595;-74
2021/12/05 04:27:16;;;;;;;2.20;1.10;;;7.60;43.40;;;;;;10240014;28;20581;-74
2021/12/05 04:32:19;;;;;;;3.60;1.10;;;7.50;43.40;;;;;;10239954;28;20228;-74
2021/12/05 04:37:23;;;;;;;2.47;0.97;;;7.40;43.60;;;;;;10238498;28;20248;-74
2021/12/05 04:42:28;;;;;;;2.07;1.20;;;7.30;43.70;;;;;;10236858;28;20239;-74
2021/12/05 04:47:31;;;;;;;1.80;1.00;;;7.30;43.80;;;;;;10235787;28;20238;-74
2021/12/05 04:52:35;;;;;;;2.20;0.80;;;7.30;43.80;;;;;;10238476;28;20235;-75
2021/12/05 04:57:43;;;;;;;1.93;1.00;;;7.30;43.70;;;;;;10234693;28;20240;-74
2021/12/05 05:02:46;;;;;;;1.13;0.83;;;7.30;43.60;;;;;;10238152;28;20262;-75
2021/12/05 05:07:50;;;;;;;1.00;0.90;;;7.20;43.70;;;;;;10233710;28;20612;-74
2021/12/05 05:12:55;;;;;;;1.77;1.00;;;7.10;43.80;;;;;;10237653;28;20714;-74
2021/12/05 05:18:01;;;;;;;2.30;0.80;;;7.10;43.90;;;;;;10234737;28;20236;-74
2021/12/05 05:29:05;;;;;;;2.97;1.00;;;6.90;44.30;;;;;;10231800;28;20251;-75
2021/12/05 05:45:19;;;;;;;1.97;0.90;;;6.80;44.20;;;;;;10240793;28;20243;-74
2021/12/05 05:50:23;;;;;;;3.50;1.10;;;6.80;44.20;;;;;;10242288;28;20245;-74
2021/12/05 05:55:26;;;;;;;2.67;1.00;;;6.90;44.30;;;;;;10244442;28;20239;-74
2021/12/05 06:00:36;;;;;;;2.43;1.13;;;6.90;44.30;;;;;;10244941;28;20228;-74
2021/12/05 06:05:39;;;;;;;1.40;1.27;;;6.90;44.20;;;;;;10239788;28;20256;-74
2021/12/05 06:10:42;;;;;;;1.10;1.07;;;7.00;44.30;;;;;;10244940;28;20236;-74
2021/12/05 06:15:48;;;;;;;1.20;1.10;;;7.00;44.20;;;;;;10242132;28;20232;-74
2021/12/05 06:20:53;;;;;;;1.63;1.17;;;7.00;44.00;;;;;;10242895;28;20235;-75
2021/12/05 06:25:56;;;;;;;1.50;1.17;;;7.00;44.00;;;;;;10241188;28;20280;-75
2021/12/05 06:31:09;;;;;;;1.13;1.00;;;7.10;43.80;;;;;;10242233;28;20259;-75
2021/12/05 06:41:51;;;;;;;1.37;1.27;;;7.10;43.90;;;;;;10244463;28;20243;-74
2021/12/05 06:46:56;;;;;;;1.60;1.50;;;7.10;43.80;;;;;;10242497;28;20603;-74
2021/12/05 06:51:59;;;;;;;1.63;1.53;;;7.10;43.60;;;;;;10243352;28;20228;-74
2021/12/05 06:57:03;;;;;;;2.00;1.90;;;7.10;43.60;;;;;;10238694;28;20240;-74
2021/12/05 07:02:09;;;;;;;2.07;1.87;;;7.10;43.60;;;;;;10238827;28;20606;-74
2021/12/05 07:07:18;;;;;;;2.57;2.27;;;7.10;43.60;;;;;;10239730;28;20790;-75
2021/12/05 07:23:17;;;;;;;2.60;1.90;;;7.00;43.60;;;;;;10239765;28;20228;-75
2021/12/05 07:44:24;;;;;;;5.27;1.93;;;7.00;43.60;;;;;;10237729;28;20236;-75
2021/12/05 07:49:29;;;;;;;3.77;2.77;;;7.00;43.60;;;;;;10238997;28;20233;-74
2021/12/05 07:54:38;;;;;;;1.90;1.70;;;6.90;43.50;;;;;;10236163;28;20589;-75
2021/12/05 07:59:55;;;;;;;3.97;2.87;;;6.90;43.60;;;;;;10235456;28;20232;-75
2021/12/05 08:15:45;;;;;;;3.27;2.97;;;6.80;44.00;;;;;;10234103;28;20266;-75
2021/12/05 08:20:50;;;;;;;3.13;2.57;;;6.90;44.20;;;;;;10233306;28;20232;-75
2021/12/05 08:26:03;;;;;;;3.33;2.70;;;6.90;44.20;;;;;;10235337;28;20244;-75
2021/12/05 08:31:13;;;;;;;4.70;3.17;;;7.00;44.40;;;;;;10235360;28;20220;-75
2021/12/05 08:42:02;;;;;;;4.93;3.63;;;7.20;44.50;;;;;;10236914;28;20234;-71
2021/12/05 09:25:00;;;;;;;3.30;1.70;;;7.80;44.10;;;;;;10230862;28;20636;-72
2021/12/05 09:30:32;;;;;;;3.63;1.90;;;7.90;44.10;;;;;;10232869;28;20235;-71
2021/12/05 09:52:27;;;;;;;3.43;2.40;;;8.00;44.00;;;;;;10227566;28;20239;-72
2021/12/05 10:03:01;;;;;;;3.93;1.70;;;8.10;44.10;;;;;;10226380;28;20236;-71
2021/12/05 10:13:31;;;;;;;2.57;1.73;;;8.20;44.00;;;;;;10222015;28;20246;-72
2021/12/05 10:19:08;;;;;;;2.40;1.50;;;8.30;43.80;;;;;;10232217;28;20244;-71
2021/12/05 10:35:27;;;;;;;4.90;2.87;;;8.30;43.50;;;;;;10231683;28;20239;-71
2021/12/05 10:40:36;;;;;;;4.83;2.07;;;8.40;44.10;;;;;;10232761;28;20461;-72
2021/12/05 10:45:45;;;;;;;3.13;2.40;;;8.40;43.40;;;;;;10232010;28;20248;-71
2021/12/05 10:50:50;;;;;;;2.27;1.80;;;8.40;43.20;;;;;;10231865;28;20441;-71
2021/12/05 10:56:03;;;;;;;3.53;2.40;;;8.30;43.40;;;;;;10232800;28;20240;-71
2021/12/05 11:01:20;;;;;;;2.30;1.90;;;8.30;43.20;;;;;;10236105;28;20232;-71
2021/12/05 11:06:28;;;;;;;3.07;2.17;;;8.30;43.40;;;;;;10240037;28;20239;-71
2021/12/05 11:11:31;;;;;;;2.87;2.40;;;8.30;43.50;;;;;;10239942;28;20251;-71
2021/12/05 11:16:39;;;;;;;2.73;1.93;;;8.40;43.40;;;;;;10240318;28;20336;-72
2021/12/05 11:21:47;;;;;;;2.97;1.90;;;8.40;43.20;;;;;;10239663;28;20244;-72
2021/12/05 11:27:08;;;;;;;3.33;1.80;;;8.30;43.40;;;;;;10239872;28;20232;-72
2021/12/05 11:32:15;;;;;;;2.73;1.90;;;8.40;42.80;;;;;;10235708;28;20232;-72
2021/12/05 11:37:19;;;;;;;1.97;1.57;;;8.40;43.30;;;;;;10238167;28;20236;-71
2021/12/05 11:42:22;;;;;;;3.67;2.43;;;8.40;43.40;;;;;;10236694;28;20291;-71
2021/12/05 11:47:27;;;;;;;3.23;1.97;;;8.50;43.10;;;;;;10229582;28;20247;-76
2021/12/05 11:52:30;;;;;;;3.00;2.70;;;8.50;42.80;;;;;;10243694;28;20746;-76
2021/12/05 11:57:37;;;;;;;2.87;2.63;;;8.50;43.40;;;;;;10237004;28;20236;-76
2021/12/05 12:02:42;;;;;;;2.97;2.17;;;8.50;43.20;;;;;;10239430;28;20240;-76
2021/12/05 12:07:49;;;;;;;7.20;4.70;;;8.50;43.40;;;;;;10237530;28;20731;-76
2021/12/05 12:12:57;;;;;;;3.87;2.60;;;8.60;43.30;;;;;;10237812;28;20233;-76
2021/12/05 12:18:09;;;;;;;4.00;2.73;;;8.60;43.20;;;;;;10236612;28;20232;-76
2021/12/05 12:23:15;;;;;;;8.23;5.73;;;8.60;43.10;;;;;;10229037;28;20255;-75
2021/12/05 12:28:18;;;;;;;7.33;4.80;;;8.60;43.20;;;;;;10230010;28;20228;-76
2021/12/05 12:33:27;;;;;;;4.83;3.20;;;8.60;43.00;;;;;;10226983;28;20240;-73
2021/12/05 12:38:37;;;;;;;3.90;2.60;;;8.60;43.00;;;;;;10228381;28;20237;-72
2021/12/05 12:43:51;;;;;;;2.40;2.20;;;8.50;43.00;;;;;;10215372;28;20246;-72
2021/12/05 12:48:58;;;;;;;3.27;2.20;;;8.50;42.70;;;;;;10237250;28;20264;-73
2021/12/05 12:54:05;;;;;;;2.57;1.90;;;8.60;42.90;;;;;;10237128;28;20238;-73
2021/12/05 12:59:12;;;;;;;3.43;1.77;;;8.60;42.80;;;;;;10236173;28;20220;-73
2021/12/05 13:04:49;;;;;;;2.63;2.20;;;8.60;42.90;;;;;;10233109;28;20240;-72
2021/12/05 13:10:04;;;;;;;2.40;1.80;;;8.60;42.70;;;;;;10238942;28;20236;-72
2021/12/05 13:15:10;;;;;;;3.83;2.93;;;8.60;42.50;;;;;;10237903;28;20238;-72
2021/12/05 13:20:18;;;;;;;2.27;1.87;;;8.70;43.00;;;;;;10244351;28;20228;-72
2021/12/05 13:25:21;;;;;;;1.90;1.70;;;8.70;42.50;;;;;;10236182;28;20244;-72
2021/12/05 13:30:30;;;;;;;1.97;1.53;;;8.80;42.70;;;;;;10233268;28;20322;-72
2021/12/05 13:35:36;;;;;;;2.37;1.80;;;8.80;42.50;;;;;;10223213;28;20262;-75
2021/12/05 13:40:41;;;;;;;3.20;1.77;;;8.80;42.50;;;;;;10235503;28;20243;-75
2021/12/05 13:45:44;;;;;;;2.33;1.80;;;8.90;42.70;;;;;;10231239;28;20236;-71
2021/12/05 13:51:06;;;;;;;1.70;1.60;;;8.90;42.80;;;;;;10233982;28;20234;-71
2021/12/05 13:56:21;;;;;;;2.50;1.60;;;9.00;42.20;;;;;;10239928;28;20238;-70
2021/12/05 14:01:29;;;;;;;1.80;1.63;;;9.00;42.40;;;;;;10238858;28;20232;-70
2021/12/05 14:06:54;;;;;;;2.33;1.70;;;9.10;42.50;;;;;;10235610;28;20727;-71
2021/12/05 14:12:18;;;;;;;2.03;1.50;;;9.10;42.10;;;;;;10237870;28;20724;-71
2021/12/05 14:17:23;;;;;;;2.00;1.60;;;9.20;42.50;;;;;;10238689;28;20331;-70
2021/12/05 14:22:31;;;;;;;1.60;1.50;;;9.20;42.50;;;;;;10244081;28;20235;-69
2021/12/05 14:27:36;;;;;;;2.37;1.60;;;9.20;42.40;;;;;;10243535;28;20236;-69
2021/12/05 14:32:41;;;;;;;1.77;1.60;;;9.30;42.70;;;;;;10242136;28;20233;-70
2021/12/05 14:37:49;;;;;;;2.43;1.60;;;9.30;42.60;;;;;;10241615;28;20232;-69
2021/12/05 14:42:52;;;;;;;1.87;1.60;;;9.30;44.90;;;;;;10239236;28;20233;-70
2021/12/05 14:47:59;;;;;;;1.93;1.37;;;9.40;43.50;;;;;;10241740;28;20244;-71
2021/12/05 14:53:24;;;;;;;1.70;1.30;;;9.40;42.70;;;;;;10240462;28;20232;-71
2021/12/05 14:58:30;;;;;;;2.07;1.27;;;9.40;42.50;;;;;;10238914;28;20241;-71
2021/12/05 15:03:36;;;;;;;1.63;1.40;;;9.40;42.70;;;;;;10240495;28;20675;-71
2021/12/05 15:08:41;;;;;;;4.43;2.00;;;9.40;42.70;;;;;;10242027;28;20236;-72
2021/12/05 15:13:45;;;;;;;5.40;1.60;;;9.30;42.40;;;;;;10235687;28;20316;-71
2021/12/05 15:18:48;;;;;;;1.37;1.27;;;9.30;42.50;;;;;;10242754;28;20239;-71
2021/12/05 15:23:53;;;;;;;1.50;1.40;;;9.20;42.50;;;;;;10241476;28;20319;-71
2021/12/05 15:29:02;;;;;;;5.37;3.63;;;9.20;42.40;;;;;;10241743;28;20259;-71
2021/12/05 15:34:30;;;;;;;4.00;3.00;;;9.10;42.30;;;;;;10232465;28;20243;-74
2021/12/05 15:39:34;;;;;;;2.70;2.10;;;9.10;45.90;;;;;;10237078;28;20601;-72
2021/12/05 15:44:40;;;;;;;1.93;1.40;;;9.20;46.10;;;;;;10236145;28;20259;-71
2021/12/05 15:49:56;;;;;;;1.57;1.20;;;9.40;45.10;;;;;;10240008;28;20239;-73
2021/12/05 15:55:01;;;;;;;1.57;1.47;;;9.50;43.80;;;;;;10239281;28;20232;-75
2021/12/05 16:00:10;;;;;;;3.13;2.40;;;9.50;43.30;;;;;;10233374;28;20228;-74
2021/12/05 16:05:19;;;;;;;2.20;2.00;;;9.50;42.90;;;;;;10237124;28;20238;-72
2021/12/05 16:10:24;;;;;;;1.70;1.60;;;9.40;42.40;;;;;;10237628;28;20244;-72
2021/12/05 16:15:28;;;;;;;1.40;1.30;;;9.30;42.30;;;;;;10234017;28;20236;-72
2021/12/05 16:20:40;;;;;;;1.40;1.30;;;9.20;42.40;;;;;;10239894;28;20765;-72
2021/12/05 16:26:04;;;;;;;2.47;2.10;;;9.20;42.20;;;;;;10236452;28;20324;-70
2021/12/05 16:31:11;;;;;;;3.10;2.37;;;9.10;42.20;;;;;;10235585;28;20239;-69
2021/12/05 16:36:15;;;;;;;2.30;2.10;;;9.00;42.10;;;;;;10236884;28;20256;-69
2021/12/05 16:41:25;;;;;;;3.67;2.33;;;8.90;42.30;;;;;;10235916;28;20228;-70
2021/12/05 16:46:31;;;;;;;2.47;2.00;;;8.80;42.20;;;;;;10239790;28;20239;-69
2021/12/05 16:51:37;;;;;;;4.87;3.47;;;8.70;42.30;;;;;;10236810;28;20224;-70
2021/12/05 16:57:01;;;;;;;3.87;3.53;;;8.70;42.30;;;;;;10236430;28;20251;-69
2021/12/05 17:02:15;;;;;;;4.13;3.27;;;8.60;42.10;;;;;;10237369;28;20244;-69
2021/12/05 17:07:37;;;;;;;4.53;3.20;;;8.50;42.80;;;;;;10234362;28;20322;-69
2021/12/05 17:12:42;;;;;;;5.27;3.80;;;8.50;42.20;;;;;;10238000;28;20737;-69
2021/12/05 17:17:46;;;;;;;6.23;5.03;;;8.40;42.30;;;;;;10235744;28;20744;-74
2021/12/05 17:22:58;;;;;;;13.00;10.93;;;8.30;42.30;;;;;;10237140;28;20229;-75
2021/12/05 17:28:06;;;;;;;8.17;7.37;;;8.30;42.10;;;;;;10234041;28;20238;-74
2021/12/05 17:33:09;;;;;;;8.17;6.40;;;8.20;42.10;;;;;;10234309;28;20228;-74
2021/12/05 17:38:12;;;;;;;9.50;8.50;;;8.20;42.40;;;;;;10230269;28;20236;-74
2021/12/05 17:43:17;;;;;;;9.70;8.70;;;8.10;42.30;;;;;;10235310;28;20238;-75
2021/12/05 17:48:20;;;;;;;14.87;13.33;;;8.00;42.30;;;;;;10235638;28;20243;-70
2021/12/05 17:53:28;;;;;;;13.27;11.43;;;8.00;42.50;;;;;;10234085;28;20259;-71
2021/12/05 17:58:52;;;;;;;13.57;12.00;;;8.00;42.50;;;;;;10233977;28;20236;-72
2021/12/05 18:03:56;;;;;;;12.37;11.07;;;7.90;42.30;;;;;;10233106;28;20308;-72
2021/12/05 18:08:59;;;;;;;12.23;10.80;;;7.90;42.50;;;;;;10232840;28;20228;-71
2021/12/05 18:14:04;;;;;;;11.20;10.10;;;7.90;42.40;;;;;;10233436;28;20244;-72
2021/12/05 18:19:10;;;;;;;8.90;8.00;;;7.80;42.20;;;;;;10232018;28;20346;-72
2021/12/05 18:24:16;;;;;;;8.73;7.93;;;7.80;42.10;;;;;;10236432;28;20236;-71
2021/12/05 18:29:22;;;;;;;9.67;8.70;;;7.70;42.10;;;;;;10227494;28;20231;-72
2021/12/05 18:34:29;;;;;;;10.27;9.27;;;7.60;42.00;;;;;;10227300;28;20240;-71
2021/12/05 18:39:36;;;;;;;7.73;7.03;;;7.60;42.10;;;;;;10235979;28;20232;-71
2021/12/05 18:44:46;;;;;;;10.03;9.03;;;7.50;42.00;;;;;;10241511;28;20240;-72
2021/12/05 18:49:50;;;;;;;17.63;13.33;;;7.40;41.90;;;;;;10242910;28;20315;-71
2021/12/05 18:54:55;;;;;;;19.67;13.47;;;7.40;41.90;;;;;;10239301;28;20609;-72
2021/12/05 19:00:05;;;;;;;16.63;12.13;;;7.30;42.00;;;;;;10234813;28;20237;-71
2021/12/05 19:05:14;;;;;;;13.20;11.37;;;7.20;42.00;;;;;;10234783;28;20235;-71
2021/12/05 19:15:40;;;;;;;11.53;10.10;;;7.10;42.10;;;;;;10236622;28;20255;-71
2021/12/05 19:20:44;;;;;;;19.40;15.10;;;7.00;42.10;;;;;;10238783;28;20742;-71
2021/12/05 19:25:47;;;;;;;18.20;14.47;;;7.00;42.10;;;;;;10236288;28;20872;-71
2021/12/05 19:30:55;;;;;;;17.37;13.97;;;7.00;42.30;;;;;;10233778;28;20230;-71
2021/12/05 19:36:00;;;;;;;16.20;13.03;;;6.90;42.00;;;;;;10234765;28;20232;-70
2021/12/05 19:41:04;;;;;;;15.80;11.83;;;6.90;42.00;;;;;;10239498;28;20231;-71
2021/12/05 19:46:13;;;;;;;19.17;14.20;;;6.90;41.90;;;;;;10195761;28;1170093;-71
2021/12/05 19:51:19;;;;;;;16.67;13.43;;;6.90;41.90;;;;;;10234590;28;20719;-70
2021/12/05 19:56:30;;;;;;;15.53;12.23;;;6.80;42.00;;;;;;10241255;28;20246;-71
2021/12/05 20:01:36;;;;;;;14.73;13.20;;;6.80;41.80;;;;;;10239217;28;20224;-69
2021/12/05 20:06:39;;;;;;;15.27;11.83;;;6.80;41.80;;;;;;10235474;28;20240;-69
2021/12/05 20:11:44;;;;;;;14.40;12.20;;;6.70;41.80;;;;;;10237037;28;20243;-71
2021/12/05 20:16:49;;;;;;;11.90;10.00;;;6.60;41.80;;;;;;10230482;28;20232;-71
2021/12/05 20:21:54;;;;;;;13.00;10.70;;;6.60;41.90;;;;;;10236112;28;20236;-71
2021/12/05 20:26:58;;;;;;;11.73;10.17;;;6.60;42.00;;;;;;10232091;28;20783;-74
2021/12/05 20:32:03;;;;;;;10.20;9.20;;;6.50;41.90;;;;;;10233451;28;20231;-73
2021/12/05 20:37:06;;;;;;;11.87;10.43;;;6.50;41.80;;;;;;10234778;28;20236;-74
2021/12/05 20:42:10;;;;;;;10.97;9.30;;;6.50;42.00;;;;;;10235035;28;20287;-74
2021/12/05 20:47:15;;;;;;;12.30;11.03;;;6.50;42.00;;;;;;10223643;28;20232;-74
2021/12/05 20:52:18;;;;;;;11.17;9.97;;;6.40;41.80;;;;;;10235695;28;20736;-74
2021/12/05 20:57:21;;;;;;;12.00;8.67;;;6.40;42.00;;;;;;10232333;28;20236;-74
2021/12/05 21:02:26;;;;;;;13.90;10.33;;;6.30;42.00;;;;;;10236609;28;20716;-75
2021/12/05 21:07:29;;;;;;;8.90;7.97;;;6.30;42.00;;;;;;10230286;28;20246;-74
2021/12/05 21:12:33;;;;;;;10.70;9.60;;;6.30;42.10;;;;;;10238964;28;20770;-75
2021/12/05 21:17:37;;;;;;;9.73;8.73;;;6.30;42.00;;;;;;10233483;28;20350;-74
2021/12/05 21:22:42;;;;;;;11.47;9.73;;;6.20;41.90;;;;;;10235153;28;20232;-75
2021/12/05 21:27:46;;;;;;;10.33;9.30;;;6.20;42.00;;;;;;10234164;28;20972;-75
2021/12/05 21:32:52;;;;;;;10.63;9.53;;;6.10;42.10;;;;;;10234113;28;20266;-75
2021/12/05 21:37:56;;;;;;;10.97;8.57;;;6.00;42.00;;;;;;10236949;28;20238;-75
2021/12/05 21:43:00;;;;;;;8.17;7.37;;;6.00;42.00;;;;;;10235381;28;20256;-75
2021/12/05 21:48:05;;;;;;;8.33;7.53;;;6.00;42.20;;;;;;10233552;28;20239;-75
2021/12/05 21:53:12;;;;;;;8.30;6.20;;;6.00;42.20;;;;;;10233407;28;20238;-75
2021/12/05 21:58:16;;;;;;;9.00;8.10;;;6.00;42.20;;;;;;10230312;28;20671;-75
2021/12/05 22:03:26;;;;;;;7.33;6.60;;;6.00;42.20;;;;;;10226355;28;20235;-75
2021/12/05 22:08:30;;;;;;;8.80;7.90;;;6.00;42.30;;;;;;10227407;28;20662;-75
2021/12/05 22:13:34;;;;;;;7.73;6.93;;;6.00;42.30;;;;;;10231798;28;20622;-75
2021/12/05 22:18:44;;;;;;;8.20;6.53;;;6.00;42.10;;;;;;10237573;28;20619;-75
2021/12/05 22:23:51;;;;;;;7.50;6.70;;;5.90;41.90;;;;;;10236710;28;20240;-75
2021/12/05 22:28:57;;;;;;;6.53;5.90;;;5.90;41.90;;;;;;10237021;28;20355;-75
2021/12/05 22:34:03;;;;;;;6.83;6.10;;;5.90;41.90;;;;;;10236454;28;20239;-76
2021/12/05 22:39:07;;;;;;;6.43;5.60;;;5.80;41.90;;;;;;10234135;28;20571;-75
2021/12/05 22:44:10;;;;;;;6.00;5.40;;;5.80;41.90;;;;;;10232607;28;20797;-75
2021/12/05 22:49:15;;;;;;;6.27;5.67;;;5.70;41.60;;;;;;10236295;28;20681;-75
2021/12/05 22:54:18;;;;;;;5.40;4.90;;;5.70;41.50;;;;;;10235260;28;20766;-75
2021/12/05 22:59:22;;;;;;;6.63;6.07;;;5.60;41.70;;;;;;10231138;28;20240;-75
2021/12/05 23:04:28;;;;;;;5.10;4.70;;;5.50;41.80;;;;;;10232113;28;20769;-74
2021/12/05 23:09:32;;;;;;;5.93;5.43;;;5.50;41.90;;;;;;10231829;28;20232;-75
2021/12/05 23:14:36;;;;;;;6.93;5.97;;;5.40;41.90;;;;;;10231049;28;20603;-74
2021/12/05 23:19:40;;;;;;;6.07;5.57;;;5.40;41.80;;;;;;10233657;28;20237;-75
2021/12/05 23:24:43;;;;;;;5.97;5.47;;;5.40;41.60;;;;;;10233012;28;20244;-75
2021/12/05 23:29:47;;;;;;;6.47;5.57;;;5.40;41.40;;;;;;10234041;28;20232;-75
2021/12/05 23:34:54;;;;;;;6.27;5.67;;;5.30;41.50;;;;;;10232744;28;20247;-75
2021/12/05 23:39:58;;;;;;;8.70;6.37;;;5.20;41.60;;;;;;10233220;28;20236;-74
2021/12/05 23:45:02;;;;;;;8.43;6.50;;;5.20;41.70;;;;;;10239242;28;20662;-74
2021/12/05 23:50:09;;;;;;;6.33;5.50;;;5.20;41.90;;;;;;10238190;28;20248;-73
2021/12/05 23:55:15;;;;;;;6.87;6.17;;;5.20;42.20;;;;;;10238020;28;20658;-73
